Terminal Aerodrome Forecast
Issued by NWS

Home | Current Version | Previous Version | Graphics & Text | Print | Product List | Glossary On
Versions: 1 2 3 4 5 6 7 8 9 10 11 12 13 14 15 16 17 18 19 20 21
000
FTUS43 KABR 160520
TAFMBG
TAF
KMBG 160520Z 1606/1706 08011KT P6SM BKN200
     FM161000 12018G25KT P6SM BKN250
     FM170000 13012KT P6SM BKN250
     FM170200 14008KT P6SM BKN250=

USA.gov is the U.S. government's official web portal to all federal, state and local government web resources and services.